Time;durP1;ratioP1;P1;durP2;ratioP2;P2;SDS_P1;SDS_P2;PMS_P1;PMS_P2;Temp;Humidity;BMP_temperature;BMP_pressure;BME280_temperature;BME280_humidity;BME280_pressure;Samples;Min_cycle;Max_cycle;Signal;HPM_P1;HPM_P2
2023/05/29 00:01:52;;;;;;;8.70;6.77;;;14.70;99.90;;;;;;5012253;28;20553;-69
2023/05/29 00:04:18;;;;;;;8.47;6.73;;;14.80;99.90;;;;;;5012126;28;20199;-69
2023/05/29 00:06:43;;;;;;;8.60;6.20;;;14.70;99.90;;;;;;5012262;28;20173;-69
2023/05/29 00:09:09;;;;;;;7.73;6.90;;;14.70;99.90;;;;;;5011932;28;20245;-69
2023/05/29 00:11:34;;;;;;;8.27;5.67;;;14.80;99.90;;;;;;5011503;28;20182;-69
2023/05/29 00:14:00;;;;;;;6.90;6.20;;;14.80;99.90;;;;;;5011983;28;20203;-69
2023/05/29 00:16:26;;;;;;;7.97;7.17;;;14.80;99.90;;;;;;5012222;28;20538;-69
2023/05/29 00:18:52;;;;;;;7.20;6.47;;;14.60;99.90;;;;;;5011811;28;20632;-69
2023/05/29 00:21:17;;;;;;;6.30;5.50;;;14.60;99.90;;;;;;5012096;28;20429;-69
2023/05/29 00:23:43;;;;;;;7.80;6.03;;;14.50;99.90;;;;;;5011875;28;20663;-69
2023/05/29 00:26:08;;;;;;;7.87;6.43;;;14.50;99.90;;;;;;5012035;28;20541;-69
2023/05/29 00:28:35;;;;;;;7.10;6.40;;;14.50;99.90;;;;;;5011735;28;20178;-69
2023/05/29 00:31:00;;;;;;;7.07;5.87;;;14.50;99.90;;;;;;5012005;28;20183;-69
2023/05/29 00:33:26;;;;;;;8.27;6.80;;;14.40;99.90;;;;;;5012010;28;20454;-69
2023/05/29 00:35:51;;;;;;;6.10;5.50;;;14.40;99.90;;;;;;5011973;28;20190;-69
2023/05/29 00:38:17;;;;;;;10.27;5.67;;;14.40;99.90;;;;;;5011566;28;20170;-69
2023/05/29 00:40:42;;;;;;;8.00;5.90;;;14.30;99.90;;;;;;5011887;28;20175;-69
2023/05/29 00:43:08;;;;;;;5.93;5.33;;;14.40;99.90;;;;;;5011788;28;20203;-69
2023/05/29 00:45:36;;;;;;;10.57;5.77;;;14.30;99.90;;;;;;5012000;28;20671;-69
2023/05/29 00:48:03;;;;;;;6.37;5.77;;;14.30;99.90;;;;;;5011781;28;20194;-69
2023/05/29 00:50:29;;;;;;;9.83;6.80;;;14.30;99.90;;;;;;5011558;28;20414;-69
2023/05/29 00:52:55;;;;;;;6.17;5.37;;;14.40;99.90;;;;;;5011664;28;20417;-68
2023/05/29 00:55:21;;;;;;;8.50;6.03;;;14.30;99.90;;;;;;5011583;28;20494;-69
2023/05/29 00:57:47;;;;;;;8.30;6.60;;;14.20;99.90;;;;;;5011750;28;20170;-69
2023/05/29 01:00:14;;;;;;;6.73;5.50;;;14.10;99.90;;;;;;5011525;28;20848;-69
2023/05/29 01:02:44;;;;;;;8.07;6.00;;;14.10;99.90;;;;;;5011742;28;20552;-69
2023/05/29 01:05:11;;;;;;;6.40;5.80;;;14.10;99.90;;;;;;5011637;28;20795;-69
2023/05/29 01:07:37;;;;;;;8.67;6.93;;;14.10;99.90;;;;;;5011607;28;20786;-69
2023/05/29 01:10:03;;;;;;;6.17;5.47;;;13.90;99.90;;;;;;5011291;28;20418;-69
2023/05/29 01:12:47;;;;;;;7.77;6.00;;;14.00;99.90;;;;;;5011619;28;20428;-69
2023/05/29 01:15:28;;;;;;;5.70;5.20;;;14.00;99.90;;;;;;5011525;28;20460;-69
2023/05/29 01:18:08;;;;;;;6.17;5.67;;;14.00;99.90;;;;;;5011587;28;20792;-69
2023/05/29 01:20:50;;;;;;;5.80;5.30;;;14.00;99.90;;;;;;5011340;28;20414;-69
2023/05/29 01:24:00;;;;;;;10.00;6.20;;;14.00;99.90;;;;;;5012505;28;20477;-69
2023/05/29 01:27:09;;;;;;;6.90;5.90;;;13.90;99.90;;;;;;5015035;28;20422;-69
2023/05/29 01:29:38;;;;;;;7.43;5.87;;;13.80;99.90;;;;;;5014723;28;20426;-69
2023/05/29 01:32:05;;;;;;;7.33;5.67;;;13.70;99.90;;;;;;5014930;28;20855;-69
2023/05/29 01:34:31;;;;;;;10.60;6.47;;;13.70;99.90;;;;;;5014830;28;20437;-69
2023/05/29 01:36:57;;;;;;;6.63;5.70;;;13.70;99.90;;;;;;5014707;28;20488;-69
2023/05/29 01:39:24;;;;;;;7.87;5.90;;;13.60;99.90;;;;;;5014425;28;20175;-68
2023/05/29 01:41:50;;;;;;;6.53;5.80;;;13.70;99.90;;;;;;5014759;28;20441;-69
2023/05/29 01:44:17;;;;;;;10.53;8.23;;;13.60;99.90;;;;;;5014751;28;20523;-69
2023/05/29 01:46:43;;;;;;;7.43;5.23;;;13.60;99.90;;;;;;5014804;28;20434;-69
2023/05/29 01:49:10;;;;;;;11.10;5.90;;;13.60;99.90;;;;;;5014412;28;20464;-69
2023/05/29 01:51:36;;;;;;;9.13;5.30;;;13.70;99.90;;;;;;5014538;28;20421;-69
2023/05/29 01:54:02;;;;;;;9.33;6.40;;;13.70;99.90;;;;;;5014445;28;20442;-69
2023/05/29 01:56:29;;;;;;;6.67;5.83;;;13.60;99.90;;;;;;5014538;28;20210;-68
2023/05/29 01:58:56;;;;;;;7.00;5.63;;;13.40;99.90;;;;;;5014219;28;20447;-69
2023/05/29 02:01:22;;;;;;;6.23;5.60;;;13.30;99.90;;;;;;5014567;28;20430;-69
2023/05/29 02:03:48;;;;;;;8.47;6.47;;;13.20;99.90;;;;;;5014213;28;20472;-69
2023/05/29 02:06:14;;;;;;;7.33;5.40;;;13.00;99.90;;;;;;5014190;28;20430;-69
2023/05/29 02:08:40;;;;;;;10.43;6.90;;;13.00;99.90;;;;;;5013998;28;20202;-69
2023/05/29 02:11:05;;;;;;;9.53;6.17;;;13.00;99.90;;;;;;5014429;28;20939;-69
2023/05/29 02:13:31;;;;;;;6.10;5.50;;;13.00;99.90;;;;;;5014028;28;20211;-68
2023/05/29 02:15:57;;;;;;;7.87;5.77;;;13.00;99.90;;;;;;5014276;28;20692;-69
2023/05/29 02:18:23;;;;;;;7.17;6.10;;;13.10;99.90;;;;;;5013903;28;20227;-69
2023/05/29 02:20:48;;;;;;;7.47;6.17;;;13.00;99.90;;;;;;5013964;28;20668;-69
2023/05/29 02:23:15;;;;;;;8.10;6.63;;;13.00;99.90;;;;;;5013860;28;20453;-69
2023/05/29 02:25:41;;;;;;;6.43;5.50;;;13.00;99.90;;;;;;5013917;28;20713;-69
2023/05/29 02:28:06;;;;;;;8.40;6.30;;;12.90;99.90;;;;;;5013866;28;20907;-69
2023/05/29 02:30:32;;;;;;;7.00;6.23;;;12.80;99.90;;;;;;5013735;28;20420;-69
2023/05/29 02:32:57;;;;;;;6.73;5.90;;;12.70;99.90;;;;;;5013740;28;20202;-68
2023/05/29 02:35:23;;;;;;;9.27;5.70;;;12.70;99.90;;;;;;5013175;28;20179;-69
2023/05/29 02:37:50;;;;;;;9.20;7.07;;;12.60;99.90;;;;;;5013948;28;20262;-69
2023/05/29 02:40:16;;;;;;;12.37;6.63;;;12.60;99.90;;;;;;5013545;28;20297;-69
2023/05/29 02:42:41;;;;;;;6.77;5.83;;;12.60;99.90;;;;;;5013587;28;20823;-69
2023/05/29 02:45:07;;;;;;;9.43;6.07;;;12.60;99.90;;;;;;5013491;28;20457;-69
2023/05/29 02:47:33;;;;;;;8.27;6.30;;;12.60;99.90;;;;;;5013531;28;20167;-68
2023/05/29 02:49:58;;;;;;;6.17;5.57;;;12.90;99.90;;;;;;5013203;28;20421;-69
2023/05/29 02:52:24;;;;;;;10.03;7.07;;;12.70;99.90;;;;;;5013450;28;20178;-69
2023/05/29 02:54:49;;;;;;;10.00;8.63;;;12.60;99.90;;;;;;5013371;28;20324;-69
2023/05/29 02:57:15;;;;;;;9.83;6.83;;;12.60;99.90;;;;;;5013379;28;20195;-69
2023/05/29 02:59:41;;;;;;;6.23;5.63;;;12.50;99.90;;;;;;5013153;28;20171;-69
2023/05/29 03:02:07;;;;;;;10.30;6.00;;;12.40;99.90;;;;;;5013374;28;20202;-69
2023/05/29 03:04:32;;;;;;;7.47;6.40;;;12.30;99.90;;;;;;5012941;28;20974;-69
2023/05/29 03:06:58;;;;;;;8.70;5.73;;;12.30;99.90;;;;;;5013371;28;20178;-69
2023/05/29 03:09:23;;;;;;;7.43;6.60;;;12.30;99.90;;;;;;5012898;28;20167;-68
2023/05/29 03:11:50;;;;;;;7.40;6.40;;;12.40;99.90;;;;;;5013127;28;20271;-69
2023/05/29 03:14:16;;;;;;;9.60;6.40;;;12.50;99.90;;;;;;5013015;28;20227;-68
2023/05/29 03:16:43;;;;;;;7.90;5.60;;;12.50;99.90;;;;;;5013079;28;20485;-69
2023/05/29 03:19:08;;;;;;;8.30;6.47;;;12.50;99.90;;;;;;5012666;28;20421;-69
2023/05/29 03:21:35;;;;;;;8.30;6.20;;;12.40;99.90;;;;;;5013118;28;20471;-69
2023/05/29 03:24:02;;;;;;;8.10;6.13;;;12.40;99.90;;;;;;5012701;28;20206;-69
2023/05/29 03:26:28;;;;;;;7.10;6.40;;;12.40;99.90;;;;;;5012949;28;20418;-69
2023/05/29 03:28:54;;;;;;;8.73;6.90;;;12.40;99.90;;;;;;5012607;28;21022;-69
2023/05/29 03:31:19;;;;;;;5.60;5.00;;;12.20;99.90;;;;;;5012856;28;20429;-69
2023/05/29 03:33:45;;;;;;;7.93;6.70;;;12.10;99.90;;;;;;5012560;28;20205;-68
2023/05/29 03:36:11;;;;;;;9.00;4.60;;;12.00;99.90;;;;;;5012692;28;20636;-68
2023/05/29 03:38:36;;;;;;;7.40;5.50;;;12.00;99.90;;;;;;5012276;28;20182;-69
2023/05/29 03:41:02;;;;;;;8.80;6.63;;;12.00;99.90;;;;;;5012669;28;20316;-69
2023/05/29 03:43:28;;;;;;;8.50;6.10;;;12.00;99.90;;;;;;5012483;28;20206;-69
2023/05/29 03:45:53;;;;;;;10.40;6.33;;;12.00;99.90;;;;;;5012374;28;20684;-69
2023/05/29 03:48:19;;;;;;;8.70;5.77;;;12.00;99.90;;;;;;5011488;28;20186;-69
2023/05/29 03:50:48;;;;;;;11.10;5.80;;;12.10;99.90;;;;;;5012478;28;20163;-69
2023/05/29 03:53:14;;;;;;;7.47;6.17;;;12.10;99.90;;;;;;5012378;28;20671;-69
2023/05/29 03:55:40;;;;;;;9.23;7.17;;;12.20;99.90;;;;;;5012307;28;20922;-68
2023/05/29 03:58:06;;;;;;;8.93;6.47;;;12.20;99.90;;;;;;5012324;28;20424;-70
2023/05/29 04:00:31;;;;;;;9.87;7.00;;;12.20;99.90;;;;;;5012128;28;20182;-69
2023/05/29 04:02:57;;;;;;;6.53;5.83;;;12.10;99.90;;;;;;5012102;28;20569;-68
2023/05/29 04:05:22;;;;;;;7.00;6.07;;;12.20;99.90;;;;;;5012387;28;20233;-69
2023/05/29 04:07:48;;;;;;;7.93;6.53;;;12.20;99.90;;;;;;5012279;28;20221;-69
2023/05/29 04:10:13;;;;;;;9.43;6.33;;;12.40;99.90;;;;;;5011924;28;20241;-69
2023/05/29 04:12:39;;;;;;;9.53;6.50;;;12.50;99.90;;;;;;5012160;28;20206;-68
2023/05/29 04:15:05;;;;;;;11.07;7.03;;;12.50;99.90;;;;;;5012063;28;20289;-68
2023/05/29 04:17:31;;;;;;;6.97;6.23;;;12.60;99.90;;;;;;5011852;28;20179;-69
2023/05/29 04:19:56;;;;;;;9.83;7.20;;;12.80;99.90;;;;;;5011753;28;20440;-68
2023/05/29 04:22:22;;;;;;;6.93;6.10;;;13.00;99.90;;;;;;5011900;28;20266;-68
2023/05/29 04:24:47;;;;;;;8.27;5.77;;;13.20;99.90;;;;;;4994242;28;20223;-69
2023/05/29 04:27:13;;;;;;;8.70;6.60;;;13.30;99.90;;;;;;5011921;28;20194;-68
2023/05/29 04:29:42;;;;;;;10.80;6.80;;;13.30;99.90;;;;;;5011580;28;20254;-69
2023/05/29 04:32:09;;;;;;;7.13;5.70;;;13.30;99.90;;;;;;5011806;28;20218;-69
2023/05/29 04:34:35;;;;;;;8.23;6.27;;;13.20;99.90;;;;;;5011718;28;20442;-69
2023/05/29 04:37:02;;;;;;;7.77;6.97;;;13.20;99.90;;;;;;5011971;28;20428;-68
2023/05/29 04:39:28;;;;;;;6.43;5.67;;;13.40;99.90;;;;;;5011487;28;20557;-68
2023/05/29 04:41:53;;;;;;;6.50;5.80;;;13.60;99.90;;;;;;5011865;28;20899;-68
2023/05/29 04:44:19;;;;;;;19.33;7.57;;;13.80;99.90;;;;;;5011671;28;20217;-69
2023/05/29 04:46:44;;;;;;;7.17;6.50;;;13.80;99.90;;;;;;5011621;28;20183;-69
2023/05/29 04:49:12;;;;;;;7.20;6.60;;;13.90;99.90;;;;;;5011499;28;20168;-69
2023/05/29 04:51:40;;;;;;;9.03;6.83;;;14.00;99.90;;;;;;5011821;28;20167;-69
2023/05/29 04:54:06;;;;;;;7.40;5.70;;;14.20;99.90;;;;;;5011639;28;20446;-69
2023/05/29 04:56:32;;;;;;;7.63;6.53;;;14.40;99.90;;;;;;5011699;28;21012;-69
2023/05/29 04:58:58;;;;;;;6.87;6.17;;;14.50;99.90;;;;;;5013576;28;20444;-69
2023/05/29 05:01:24;;;;;;;9.70;6.50;;;14.60;99.90;;;;;;5015385;28;20171;-69
2023/05/29 05:03:49;;;;;;;8.67;5.43;;;14.80;99.90;;;;;;5015500;28;20460;-69
2023/05/29 05:06:16;;;;;;;6.03;5.50;;;14.90;99.90;;;;;;5015383;28;20164;-69
2023/05/29 05:08:42;;;;;;;11.50;6.70;;;15.10;99.90;;;;;;5014922;28;20159;-69
2023/05/29 05:11:07;;;;;;;7.30;6.20;;;15.30;99.90;;;;;;5015353;28;20428;-69
2023/05/29 05:13:33;;;;;;;8.27;6.63;;;15.40;99.90;;;;;;5015569;28;20202;-68
2023/05/29 05:15:59;;;;;;;7.07;6.23;;;15.50;99.90;;;;;;5017289;28;20600;-68
2023/05/29 05:18:24;;;;;;;7.57;6.20;;;15.70;99.90;;;;;;5016431;28;20613;-68
2023/05/29 05:20:50;;;;;;;6.13;5.50;;;15.90;99.90;;;;;;5016891;28;20640;-68
2023/05/29 05:23:15;;;;;;;7.13;6.13;;;16.10;99.90;;;;;;5016743;28;20664;-67
2023/05/29 05:25:41;;;;;;;6.53;5.93;;;16.30;99.90;;;;;;5016793;28;20254;-68
2023/05/29 05:28:08;;;;;;;9.00;6.33;;;16.30;99.90;;;;;;5016463;28;20170;-68
2023/05/29 05:30:33;;;;;;;7.53;6.80;;;16.30;99.90;;;;;;5016428;28;20206;-67
2023/05/29 05:32:59;;;;;;;7.60;6.90;;;16.50;99.90;;;;;;5016121;28;20511;-68
2023/05/29 05:35:25;;;;;;;6.90;6.20;;;16.60;99.90;;;;;;5015956;28;20179;-68
2023/05/29 05:37:50;;;;;;;7.73;6.93;;;16.80;99.90;;;;;;5016228;28;20214;-68
2023/05/29 05:40:16;;;;;;;8.00;5.83;;;16.90;99.90;;;;;;5015978;28;20179;-68
2023/05/29 05:42:41;;;;;;;7.30;5.97;;;17.00;99.90;;;;;;5015318;28;20554;-68
2023/05/29 05:45:07;;;;;;;7.67;5.60;;;17.10;99.90;;;;;;5015392;28;20334;-68
2023/05/29 05:47:33;;;;;;;7.53;6.37;;;17.10;99.90;;;;;;5015254;28;20177;-68
2023/05/29 05:49:59;;;;;;;6.87;6.23;;;17.30;99.90;;;;;;5014766;28;20414;-68
2023/05/29 05:52:25;;;;;;;8.57;6.07;;;17.40;99.90;;;;;;5015263;28;20202;-68
2023/05/29 05:54:51;;;;;;;8.10;6.20;;;17.50;99.90;;;;;;5014840;28;20191;-68
2023/05/29 05:57:17;;;;;;;8.60;6.60;;;17.70;99.90;;;;;;5015106;28;20460;-69
2023/05/29 05:59:43;;;;;;;7.23;6.53;;;18.00;99.90;;;;;;5014550;28;20458;-68
2023/05/29 06:02:08;;;;;;;10.57;7.03;;;18.20;99.90;;;;;;4997173;28;20173;-68
2023/05/29 06:04:34;;;;;;;7.23;5.47;;;18.30;99.90;;;;;;4997156;28;20725;-68
2023/05/29 06:06:59;;;;;;;7.10;5.13;;;18.50;99.90;;;;;;5014940;28;20266;-69
2023/05/29 06:09:25;;;;;;;7.17;6.23;;;18.60;99.90;;;;;;5014009;28;20160;-68
2023/05/29 06:11:51;;;;;;;9.00;6.27;;;18.70;99.90;;;;;;5015382;28;20640;-69
2023/05/29 06:14:17;;;;;;;7.23;5.70;;;18.80;99.90;;;;;;5015366;28;20742;-68
2023/05/29 06:16:42;;;;;;;6.90;5.50;;;18.90;99.90;;;;;;4998012;28;20171;-69
2023/05/29 06:19:08;;;;;;;7.13;6.00;;;19.00;99.90;;;;;;5015710;28;20589;-69
2023/05/29 06:21:34;;;;;;;7.30;5.67;;;19.00;99.90;;;;;;5016721;28;20476;-68
2023/05/29 06:24:00;;;;;;;7.43;6.70;;;19.30;99.90;;;;;;5016460;28;20302;-68
2023/05/29 06:26:26;;;;;;;7.43;6.53;;;19.40;99.90;;;;;;5016816;28;20629;-69
2023/05/29 06:28:52;;;;;;;8.00;6.93;;;19.30;99.90;;;;;;4998245;28;20597;-68
2023/05/29 06:31:18;;;;;;;6.80;6.13;;;19.40;99.90;;;;;;5016292;28;20446;-69
2023/05/29 06:33:45;;;;;;;7.17;6.43;;;19.40;99.90;;;;;;5016390;28;20448;-68
2023/05/29 06:36:10;;;;;;;7.97;5.80;;;19.50;99.90;;;;;;5016179;28;20198;-68
2023/05/29 06:38:36;;;;;;;9.80;7.13;;;19.70;99.90;;;;;;5015713;28;20421;-68
2023/05/29 06:41:02;;;;;;;7.33;6.40;;;19.80;99.90;;;;;;5016396;28;20179;-68
2023/05/29 06:43:28;;;;;;;8.83;6.30;;;19.90;99.90;;;;;;5015667;28;20293;-68
2023/05/29 06:45:54;;;;;;;7.00;5.87;;;20.10;99.90;;;;;;5014681;28;20167;-69
2023/05/29 06:48:19;;;;;;;7.37;6.73;;;20.10;99.90;;;;;;5014739;28;20424;-68
2023/05/29 06:50:45;;;;;;;6.47;5.83;;;20.40;99.90;;;;;;5013759;28;20417;-69
2023/05/29 06:53:11;;;;;;;9.53;7.20;;;20.50;99.90;;;;;;5013317;28;20183;-68
2023/05/29 06:55:37;;;;;;;7.27;6.67;;;20.60;99.60;;;;;;5013477;28;20217;-69
2023/05/29 06:58:03;;;;;;;9.10;6.27;;;20.70;99.00;;;;;;5013569;28;20202;-68
2023/05/29 07:00:29;;;;;;;7.30;6.57;;;20.70;98.80;;;;;;5013231;28;21114;-69
2023/05/29 07:02:54;;;;;;;7.03;6.33;;;20.80;98.70;;;;;;5013445;28;20237;-68
2023/05/29 07:05:20;;;;;;;7.73;6.40;;;21.00;97.50;;;;;;5013252;28;20187;-68
2023/05/29 07:07:45;;;;;;;6.73;6.13;;;21.00;96.90;;;;;;5013349;28;20202;-69
2023/05/29 07:10:11;;;;;;;7.33;6.43;;;21.10;97.40;;;;;;5012935;28;20259;-69
2023/05/29 07:12:36;;;;;;;8.80;7.33;;;21.20;96.50;;;;;;5013100;28;20175;-68
2023/05/29 07:15:02;;;;;;;13.07;7.37;;;21.40;96.20;;;;;;5013030;28;20207;-69
2023/05/29 07:17:27;;;;;;;6.23;5.27;;;21.50;95.90;;;;;;5012996;28;20182;-68
2023/05/29 07:19:54;;;;;;;7.23;5.73;;;21.60;95.40;;;;;;5012654;28;20543;-68
2023/05/29 07:22:19;;;;;;;6.87;6.27;;;21.70;95.60;;;;;;5012759;28;20221;-68
2023/05/29 07:24:45;;;;;;;9.13;5.93;;;21.80;94.80;;;;;;5012818;28;20461;-69
2023/05/29 07:27:10;;;;;;;9.90;6.43;;;21.90;94.30;;;;;;5012833;28;20175;-69
2023/05/29 07:29:36;;;;;;;6.80;6.20;;;21.90;94.20;;;;;;5012823;28;20175;-69
2023/05/29 07:32:02;;;;;;;6.30;5.80;;;22.20;93.90;;;;;;5012794;28;20187;-69
2023/05/29 07:34:27;;;;;;;7.77;6.67;;;22.20;92.90;;;;;;5012720;28;20569;-68
2023/05/29 07:37:11;;;;;;;7.33;6.50;;;22.20;93.30;;;;;;5012791;28;20182;-69
2023/05/29 07:39:36;;;;;;;8.00;6.07;;;22.30;92.60;;;;;;5012444;28;20669;-69
2023/05/29 07:42:03;;;;;;;7.60;6.90;;;22.30;92.80;;;;;;5012618;28;20480;-69
2023/05/29 07:44:28;;;;;;;6.73;5.70;;;22.60;92.00;;;;;;5012429;28;20226;-70
2023/05/29 07:46:54;;;;;;;7.30;6.57;;;22.60;92.00;;;;;;5012500;28;20794;-69
2023/05/29 07:49:20;;;;;;;6.70;6.10;;;22.70;91.80;;;;;;5012225;28;20246;-69
2023/05/29 07:51:46;;;;;;;8.30;6.87;;;22.80;91.60;;;;;;5012425;28;20580;-69
2023/05/29 07:54:11;;;;;;;9.93;6.83;;;22.90;90.60;;;;;;5012180;28;20453;-70
2023/05/29 07:56:38;;;;;;;6.00;5.50;;;23.00;90.80;;;;;;5012333;28;20229;-69
2023/05/29 07:59:04;;;;;;;7.43;5.77;;;23.10;90.80;;;;;;5012354;28;20189;-70
2023/05/29 08:01:29;;;;;;;6.50;5.90;;;23.10;91.20;;;;;;5012269;28;20504;-69
2023/05/29 08:03:55;;;;;;;6.60;5.53;;;23.20;91.20;;;;;;5012117;28;20899;-69
2023/05/29 08:06:21;;;;;;;6.07;5.03;;;23.20;91.70;;;;;;5012354;28;20253;-70
2023/05/29 08:08:47;;;;;;;5.43;4.90;;;23.00;91.80;;;;;;5011947;28;20265;-70
2023/05/29 08:11:13;;;;;;;10.63;6.37;;;23.40;90.60;;;;;;5012117;28;20198;-69
2023/05/29 08:13:38;;;;;;;7.47;6.70;;;23.60;87.80;;;;;;5011938;28;20465;-70
2023/05/29 08:16:04;;;;;;;7.70;5.93;;;23.80;84.30;;;;;;5012112;28;20229;-69
2023/05/29 08:18:32;;;;;;;7.40;6.70;;;23.80;84.30;;;;;;5011760;28;20529;-69
2023/05/29 08:20:58;;;;;;;8.30;6.20;;;23.80;82.30;;;;;;5012103;28;20509;-69
2023/05/29 08:23:23;;;;;;;6.70;6.10;;;23.90;82.60;;;;;;5011791;28;20457;-69
2023/05/29 08:25:49;;;;;;;7.90;5.97;;;23.90;82.30;;;;;;5011940;28;20437;-69
2023/05/29 08:28:15;;;;;;;6.93;6.33;;;23.90;80.90;;;;;;5011941;28;20171;-70
2023/05/29 08:30:41;;;;;;;6.77;6.27;;;24.10;81.10;;;;;;5012216;28;20266;-69
2023/05/29 08:33:06;;;;;;;7.60;6.90;;;24.20;80.30;;;;;;5013001;28;20256;-69
2023/05/29 08:35:32;;;;;;;6.63;5.97;;;24.30;78.50;;;;;;5016172;28;20592;-69
2023/05/29 08:37:58;;;;;;;7.83;5.90;;;24.40;77.60;;;;;;5016160;28;20175;-69
2023/05/29 08:40:24;;;;;;;6.50;5.90;;;24.50;78.30;;;;;;5016074;28;20517;-69
2023/05/29 08:43:23;;;;;;;8.37;6.80;;;24.60;76.80;;;;;;5015905;28;20260;-69
2023/05/29 08:45:53;;;;;;;7.40;6.80;;;24.70;76.00;;;;;;5015929;28;20194;-69
2023/05/29 08:48:22;;;;;;;7.80;6.40;;;24.90;73.80;;;;;;5015530;28;20914;-70
2023/05/29 08:50:56;;;;;;;8.97;5.97;;;25.00;72.70;;;;;;5015870;28;20421;-70
2023/05/29 08:53:23;;;;;;;6.60;6.00;;;25.00;74.10;;;;;;5015592;28;20433;-69
2023/05/29 08:55:52;;;;;;;6.10;5.50;;;25.20;73.10;;;;;;5015605;28;20453;-69
2023/05/29 08:58:18;;;;;;;8.33;7.23;;;25.40;73.60;;;;;;5015283;28;20421;-70
2023/05/29 09:00:48;;;;;;;7.37;6.50;;;25.70;70.50;;;;;;5015506;28;20426;-69
2023/05/29 09:03:14;;;;;;;7.60;6.30;;;25.50;71.10;;;;;;5015507;28;20461;-69
2023/05/29 09:05:41;;;;;;;9.93;6.10;;;25.80;69.50;;;;;;5015487;28;20717;-69
2023/05/29 09:08:11;;;;;;;6.60;5.90;;;26.00;69.60;;;;;;5015228;28;20961;-69
2023/05/29 09:10:41;;;;;;;8.97;7.20;;;26.00;69.50;;;;;;5015374;28;20421;-69
2023/05/29 09:13:09;;;;;;;6.77;5.83;;;26.10;69.40;;;;;;5015055;28;20902;-69
2023/05/29 09:15:34;;;;;;;5.93;5.30;;;26.40;68.80;;;;;;5015307;28;20445;-69
2023/05/29 09:18:00;;;;;;;7.30;6.60;;;26.50;67.20;;;;;;5015248;28;20413;-69
2023/05/29 09:20:27;;;;;;;7.70;7.10;;;26.70;66.10;;;;;;5015042;28;20178;-69
2023/05/29 09:22:54;;;;;;;8.20;6.10;;;26.60;65.70;;;;;;5015057;28;20449;-69
2023/05/29 09:25:24;;;;;;;6.70;6.00;;;26.70;65.50;;;;;;5014964;28;20532;-69
2023/05/29 09:28:02;;;;;;;6.93;6.23;;;26.70;66.10;;;;;;5015035;28;20417;-70
2023/05/29 09:30:31;;;;;;;6.43;5.83;;;26.90;65.50;;;;;;5014849;28;20497;-69
2023/05/29 09:32:58;;;;;;;7.83;6.40;;;27.00;64.50;;;;;;5014925;28;20428;-70
2023/05/29 09:35:23;;;;;;;6.53;5.93;;;27.00;63.70;;;;;;5014899;28;20428;-69
2023/05/29 09:37:50;;;;;;;7.30;6.70;;;27.20;64.10;;;;;;5014888;28;20429;-69
2023/05/29 09:40:15;;;;;;;6.73;6.10;;;27.70;63.00;;;;;;5014338;28;20179;-70
2023/05/29 09:42:41;;;;;;;7.30;6.60;;;28.00;62.60;;;;;;5014704;28;20480;-70
2023/05/29 09:45:08;;;;;;;7.67;6.97;;;28.20;60.50;;;;;;5013286;28;20570;-70
2023/05/29 09:47:35;;;;;;;13.23;5.73;;;28.70;59.80;;;;;;5014851;28;20651;-70
2023/05/29 09:50:01;;;;;;;8.13;6.50;;;29.10;59.90;;;;;;5014317;28;20414;-70
2023/05/29 09:52:29;;;;;;;6.50;5.73;;;29.80;58.70;;;;;;5014674;28;20448;-70
2023/05/29 09:54:56;;;;;;;9.03;6.40;;;30.40;57.10;;;;;;5014451;28;20441;-70
2023/05/29 09:57:24;;;;;;;7.87;6.47;;;30.60;55.60;;;;;;5014595;28;20413;-70
2023/05/29 09:59:52;;;;;;;7.73;6.50;;;30.90;54.70;;;;;;5014254;28;20422;-70
2023/05/29 10:02:18;;;;;;;7.57;6.87;;;31.30;53.90;;;;;;5014484;28;20431;-70
2023/05/29 10:04:44;;;;;;;7.13;6.53;;;31.80;53.00;;;;;;5014305;28;20983;-70
2023/05/29 10:07:17;;;;;;;6.53;5.83;;;32.00;51.60;;;;;;5014378;28;20167;-70
2023/05/29 10:09:45;;;;;;;7.00;6.40;;;32.30;50.20;;;;;;5014191;28;20166;-70
2023/05/29 10:12:12;;;;;;;6.50;5.80;;;32.70;49.30;;;;;;5014474;28;20414;-70
2023/05/29 10:14:42;;;;;;;6.40;5.90;;;32.40;49.30;;;;;;5014076;28;20511;-70
2023/05/29 10:17:11;;;;;;;6.50;5.80;;;32.70;47.40;;;;;;5014239;28;20460;-70
2023/05/29 10:19:38;;;;;;;6.17;5.67;;;32.80;47.00;;;;;;5013911;28;20420;-70
2023/05/29 10:22:05;;;;;;;6.57;5.90;;;33.50;46.40;;;;;;5013977;28;20436;-70
2023/05/29 10:24:32;;;;;;;6.47;5.97;;;34.10;44.60;;;;;;5013822;28;20593;-70
2023/05/29 10:26:59;;;;;;;6.27;5.47;;;34.60;42.90;;;;;;5014022;28;20436;-70
2023/05/29 10:29:32;;;;;;;6.63;6.13;;;34.70;42.60;;;;;;5013844;28;20417;-70
2023/05/29 10:32:27;;;;;;;6.03;5.53;;;34.80;41.80;;;;;;5013950;28;20418;-70
2023/05/29 10:35:22;;;;;;;5.53;5.03;;;35.50;42.10;;;;;;5013831;28;20465;-70
2023/05/29 10:38:02;;;;;;;7.83;6.20;;;36.00;39.50;;;;;;5013710;28;20422;-67
2023/05/29 10:40:28;;;;;;;6.50;5.90;;;36.50;39.20;;;;;;5013510;28;20472;-67
2023/05/29 10:42:58;;;;;;;5.87;5.33;;;36.90;37.40;;;;;;5013471;28;20457;-67
2023/05/29 10:45:32;;;;;;;6.83;6.13;;;37.20;36.40;;;;;;5013562;28;20159;-67
2023/05/29 10:48:12;;;;;;;6.30;5.40;;;37.70;35.70;;;;;;5013460;28;20473;-67
2023/05/29 10:50:42;;;;;;;6.90;6.30;;;38.00;35.20;;;;;;5013514;28;20413;-67
2023/05/29 10:53:11;;;;;;;7.40;6.30;;;37.60;34.40;;;;;;5013167;28;20418;-67
2023/05/29 10:55:38;;;;;;;6.90;5.60;;;37.70;33.60;;;;;;5013021;28;20429;-67
2023/05/29 10:58:08;;;;;;;5.70;5.20;;;36.60;34.00;;;;;;5013484;28;20436;-67
2023/05/29 11:00:41;;;;;;;7.73;6.23;;;36.30;33.70;;;;;;5013287;28;20444;-70
2023/05/29 11:03:07;;;;;;;6.70;6.10;;;36.40;33.60;;;;;;5013215;28;20453;-70
2023/05/29 11:05:33;;;;;;;6.40;5.90;;;35.80;34.70;;;;;;5013324;28;20793;-71
2023/05/29 11:08:02;;;;;;;5.93;5.50;;;36.60;34.20;;;;;;5013210;28;20504;-70
2023/05/29 11:10:45;;;;;;;8.00;5.17;;;37.40;33.60;;;;;;5012993;28;20163;-70
2023/05/29 11:13:26;;;;;;;6.43;5.67;;;38.40;33.90;;;;;;5013076;28;20468;-71
2023/05/29 11:16:12;;;;;;;6.20;5.60;;;38.50;32.40;;;;;;5013123;28;20520;-70
2023/05/29 11:18:41;;;;;;;8.40;5.63;;;38.90;31.30;;;;;;5012805;28;20544;-67
2023/05/29 11:21:26;;;;;;;6.20;5.60;;;38.60;31.10;;;;;;5012966;28;20421;-67
2023/05/29 11:23:52;;;;;;;5.17;4.83;;;38.60;30.40;;;;;;5012741;28;20466;-68
2023/05/29 11:26:20;;;;;;;5.57;5.17;;;38.00;30.40;;;;;;5012877;28;20421;-67
2023/05/29 11:28:46;;;;;;;5.73;5.13;;;38.80;31.10;;;;;;5012559;28;20507;-67
2023/05/29 11:31:13;;;;;;;5.07;4.57;;;39.20;30.20;;;;;;5012835;28;20433;-68
2023/05/29 11:33:43;;;;;;;5.30;4.90;;;38.70;30.30;;;;;;5012819;28;20452;-68
2023/05/29 11:36:10;;;;;;;5.20;4.80;;;39.20;30.00;;;;;;5012868;28;20418;-67
2023/05/29 11:38:36;;;;;;;6.27;4.63;;;38.90;29.90;;;;;;5012393;28;20524;-67
2023/05/29 11:41:03;;;;;;;5.50;5.07;;;39.20;29.40;;;;;;5012633;28;20476;-67
2023/05/29 11:43:28;;;;;;;5.43;4.93;;;39.50;28.70;;;;;;5012685;28;20465;-67
2023/05/29 11:45:54;;;;;;;6.20;5.60;;;39.80;29.10;;;;;;5012505;28;20422;-67
2023/05/29 11:48:19;;;;;;;9.10;6.00;;;39.70;29.10;;;;;;5012122;28;20202;-67
2023/05/29 11:50:45;;;;;;;7.77;5.60;;;39.50;29.10;;;;;;5012335;28;20167;-67
2023/05/29 11:53:11;;;;;;;6.50;5.33;;;39.50;28.30;;;;;;5012312;28;20193;-67
2023/05/29 11:55:37;;;;;;;6.13;5.53;;;39.50;29.10;;;;;;5012322;28;20178;-68
2023/05/29 11:58:04;;;;;;;6.50;4.73;;;40.40;28.30;;;;;;5012241;28;20814;-68
2023/05/29 12:00:37;;;;;;;6.20;5.23;;;40.30;28.10;;;;;;5012243;28;20189;-68
2023/05/29 12:03:05;;;;;;;5.60;5.10;;;39.80;28.30;;;;;;5012207;28;20454;-68
2023/05/29 12:05:43;;;;;;;5.83;5.33;;;40.50;27.90;;;;;;5012085;28;20432;-67
2023/05/29 12:08:09;;;;;;;5.33;4.63;;;40.90;28.00;;;;;;5011237;28;20469;-68
2023/05/29 12:10:35;;;;;;;5.23;4.77;;;41.30;27.40;;;;;;5012252;28;20422;-67
2023/05/29 12:13:01;;;;;;;5.20;4.80;;;39.70;27.10;;;;;;5011776;28;20436;-67
2023/05/29 12:15:27;;;;;;;5.27;4.77;;;40.80;27.00;;;;;;5012037;28;20174;-67
2023/05/29 12:17:53;;;;;;;4.43;4.13;;;39.30;26.80;;;;;;5012170;28;20183;-67
2023/05/29 12:20:21;;;;;;;5.47;4.90;;;40.20;26.70;;;;;;5011806;28;20781;-70
2023/05/29 12:22:47;;;;;;;5.43;4.93;;;40.10;26.90;;;;;;5012001;28;20509;-70
2023/05/29 12:25:22;;;;;;;5.00;4.57;;;40.00;26.50;;;;;;4994350;28;20537;-70
2023/05/29 12:27:49;;;;;;;4.90;4.50;;;39.10;26.70;;;;;;5011968;28;20244;-70
2023/05/29 12:30:20;;;;;;;4.93;4.53;;;39.80;26.50;;;;;;5011729;28;20410;-70
2023/05/29 12:32:54;;;;;;;5.20;4.70;;;40.50;26.10;;;;;;5012105;28;20418;-70
2023/05/29 12:35:20;;;;;;;4.87;4.57;;;41.00;25.60;;;;;;5011786;28;20432;-70
2023/05/29 12:37:54;;;;;;;5.10;4.80;;;41.20;25.30;;;;;;5012008;28;20509;-70
2023/05/29 12:40:23;;;;;;;5.47;5.07;;;41.40;25.10;;;;;;5011647;28;20421;-70
2023/05/29 12:42:54;;;;;;;5.77;5.37;;;40.90;25.20;;;;;;5011838;28;20934;-70
2023/05/29 12:45:23;;;;;;;6.13;4.60;;;41.00;25.10;;;;;;5011856;28;20452;-70
2023/05/29 12:47:53;;;;;;;5.90;4.87;;;40.70;24.50;;;;;;5011707;28;20434;-70